createdAt,value
2023-02-19T00:00:05.764Z,0.60
2023-02-19T00:02:53.927Z,0.60
2023-02-19T00:05:21.966Z,0.60
2023-02-19T00:07:50.173Z,1.30
2023-02-19T00:10:18.889Z,1.20
2023-02-19T00:12:46.706Z,0.60
2023-02-19T00:15:15.010Z,0.60
2023-02-19T00:17:42.882Z,1.30
2023-02-19T00:20:11.291Z,0.60
2023-02-19T00:22:41.433Z,1.90
2023-02-19T00:25:15.376Z,1.10
2023-02-19T00:27:43.542Z,0.80
2023-02-19T00:30:14.241Z,0.60
2023-02-19T00:32:50.865Z,0.60
2023-02-19T00:35:18.814Z,1.60
2023-02-19T00:37:46.574Z,0.60
2023-02-19T00:40:15.193Z,1.40
2023-02-19T00:42:43.381Z,1.60
2023-02-19T00:45:11.395Z,0.80
2023-02-19T00:47:42.424Z,1.10
2023-02-19T00:50:12.729Z,0.80
2023-02-19T00:52:42.125Z,2.40
2023-02-19T00:55:10.978Z,1.30
2023-02-19T00:57:39.357Z,1.10
2023-02-19T01:00:10.161Z,1.50
2023-02-19T01:02:38.286Z,0.80
2023-02-19T01:05:08.815Z,0.80
2023-02-19T01:07:38.343Z,3.90
2023-02-19T01:10:08.814Z,1.20
2023-02-19T01:12:36.580Z,0.70
2023-02-19T01:15:04.749Z,0.70
2023-02-19T01:17:32.722Z,1.60
2023-02-19T01:20:00.454Z,1.20
2023-02-19T01:22:28.956Z,0.60
2023-02-19T01:24:57.221Z,1.00
2023-02-19T01:27:24.971Z,1.50
2023-02-19T01:29:53.281Z,0.60
2023-02-19T01:32:22.775Z,2.20
2023-02-19T01:34:50.628Z,0.60
2023-02-19T01:37:18.401Z,0.40
2023-02-19T01:39:47.883Z,0.50
2023-02-19T01:42:18.658Z,0.50
2023-02-19T01:44:47.329Z,2.30
2023-02-19T01:47:19.736Z,4.10
2023-02-19T01:49:55.877Z,0.60
2023-02-19T01:52:38.133Z,0.50
2023-02-19T01:55:12.524Z,0.60
2023-02-19T01:57:46.814Z,0.70
2023-02-19T02:00:18.335Z,3.90
2023-02-19T02:02:53.016Z,1.90
2023-02-19T02:06:12.219Z,0.70
2023-02-19T02:08:59.826Z,0.80
2023-02-19T02:11:28.538Z,0.50
2023-02-19T02:14:00.735Z,1.00
2023-02-19T02:16:56.085Z,0.40
2023-02-19T02:19:49.662Z,0.50
2023-02-19T02:22:47.475Z,1.60
2023-02-19T02:26:02.222Z,0.50
2023-02-19T02:29:16.399Z,0.40
2023-02-19T02:31:59.399Z,0.70
2023-02-19T02:34:54.456Z,0.50
2023-02-19T02:37:28.208Z,0.80
2023-02-19T02:40:00.198Z,2.10
2023-02-19T02:42:27.971Z,1.10
2023-02-19T02:45:37.726Z,1.10
2023-02-19T02:48:40.348Z,0.40
2023-02-19T02:51:31.276Z,1.20
2023-02-19T02:54:38.637Z,0.80
2023-02-19T02:57:14.929Z,1.00
2023-02-19T02:59:45.873Z,1.60
2023-02-19T03:02:25.262Z,0.60
2023-02-19T03:05:39.003Z,0.50
2023-02-19T03:08:17.901Z,0.90
2023-02-19T03:11:23.990Z,1.20
2023-02-19T03:14:28.276Z,0.60
2023-02-19T03:17:34.534Z,1.10
2023-02-19T03:20:11.247Z,0.70
2023-02-19T03:22:42.954Z,1.20
2023-02-19T03:25:37.902Z,0.70
2023-02-19T03:28:16.144Z,3.90
2023-02-19T03:30:53.807Z,0.70
2023-02-19T03:33:27.199Z,0.50
2023-02-19T03:36:08.413Z,1.10
2023-02-19T03:38:59.877Z,1.90
2023-02-19T03:41:43.770Z,1.10
2023-02-19T03:44:33.836Z,0.50
2023-02-19T03:47:20.904Z,0.50
2023-02-19T03:50:19.832Z,1.00
2023-02-19T03:52:58.961Z,0.60
2023-02-19T03:56:02.797Z,0.50
2023-02-19T03:58:54.998Z,0.50
2023-02-19T04:01:38.097Z,0.60
2023-02-19T04:04:47.894Z,0.70
2023-02-19T04:07:16.049Z,1.60
2023-02-19T04:09:49.922Z,2.10
2023-02-19T04:12:21.043Z,1.30
2023-02-19T04:15:07.807Z,0.60
2023-02-19T04:17:41.921Z,2.30
2023-02-19T04:20:13.437Z,0.80
2023-02-19T04:22:45.119Z,1.60
2023-02-19T04:25:13.074Z,0.60
2023-02-19T04:27:45.584Z,1.40
2023-02-19T04:30:15.932Z,0.90
2023-02-19T04:32:43.641Z,1.00
2023-02-19T04:35:12.768Z,0.70
2023-02-19T04:37:42.074Z,0.90
2023-02-19T04:40:12.383Z,1.00
2023-02-19T04:42:40.162Z,0.70
2023-02-19T04:45:08.473Z,1.30
2023-02-19T04:47:36.197Z,0.60
2023-02-19T04:50:04.464Z,0.60
2023-02-19T04:52:33.546Z,0.70
2023-02-19T04:55:01.358Z,1.00
2023-02-19T04:57:29.141Z,0.30
2023-02-19T04:59:57.500Z,0.50
2023-02-19T05:02:25.553Z,0.60
2023-02-19T05:04:57.134Z,0.60
2023-02-19T05:07:24.896Z,0.50
2023-02-19T05:09:53.571Z,0.50
2023-02-19T05:12:21.453Z,2.10
2023-02-19T05:14:49.706Z,0.60
2023-02-19T05:17:17.960Z,1.20
2023-02-19T05:19:47.745Z,0.80
2023-02-19T05:22:15.508Z,0.50
2023-02-19T05:24:43.938Z,0.50
2023-02-19T05:27:11.636Z,1.20
2023-02-19T05:29:39.798Z,0.70
2023-02-19T05:32:08.466Z,0.70
2023-02-19T05:34:36.436Z,0.60
2023-02-19T05:37:06.708Z,0.70
2023-02-19T05:39:34.748Z,1.60
2023-02-19T05:42:02.974Z,2.60
2023-02-19T05:44:30.962Z,2.00
2023-02-19T05:46:58.668Z,5.10
2023-02-19T05:49:29.399Z,1.70
2023-02-19T05:51:57.399Z,1.20
2023-02-19T05:54:25.540Z,1.70
2023-02-19T05:56:53.375Z,1.00
2023-02-19T05:59:27.874Z,2.40
2023-02-19T06:01:56.541Z,1.00
2023-02-19T06:04:25.310Z,0.50
2023-02-19T06:06:54.836Z,1.90
2023-02-19T06:09:23.699Z,1.00
2023-02-19T06:11:51.445Z,2.50
2023-02-19T06:14:19.674Z,0.90
2023-02-19T06:16:47.540Z,1.00
2023-02-19T06:19:16.309Z,1.70
2023-02-19T06:21:44.020Z,1.00
2023-02-19T06:24:11.884Z,0.80
2023-02-19T06:26:39.670Z,0.80
2023-02-19T06:29:07.616Z,0.70
2023-02-19T06:31:35.503Z,0.80
2023-02-19T06:34:06.671Z,0.80
2023-02-19T06:36:35.456Z,0.70
2023-02-19T06:39:06.124Z,0.90
2023-02-19T06:41:34.236Z,2.40
2023-02-19T06:44:02.590Z,4.70
2023-02-19T06:46:30.469Z,2.40
2023-02-19T06:49:00.118Z,0.80
2023-02-19T06:51:29.736Z,2.20
2023-02-19T06:54:02.257Z,1.30
2023-02-19T06:56:46.080Z,1.20
2023-02-19T06:59:19.664Z,1.30
2023-02-19T07:01:47.544Z,0.70
2023-02-19T07:04:18.085Z,2.30
2023-02-19T07:06:46.105Z,2.10
2023-02-19T07:09:14.733Z,2.20
2023-02-19T07:11:44.916Z,2.40
2023-02-19T07:14:17.173Z,1.70
2023-02-19T07:16:47.359Z,0.70
2023-02-19T07:19:16.677Z,1.70
2023-02-19T07:21:44.435Z,3.70
2023-02-19T07:24:12.643Z,8.20
2023-02-19T07:26:43.854Z,4.60
2023-02-19T07:29:11.632Z,3.10
2023-02-19T07:31:39.586Z,2.20
2023-02-19T07:34:07.874Z,1.60
2023-02-19T07:36:35.922Z,1.80
2023-02-19T07:39:05.359Z,2.40
2023-02-19T07:41:33.250Z,3.00
2023-02-19T07:44:01.674Z,2.70
2023-02-19T07:46:31.059Z,1.30
2023-02-19T07:49:08.215Z,4.20
2023-02-19T07:51:39.888Z,2.00
2023-02-19T07:54:10.210Z,1.60
2023-02-19T07:56:38.826Z,2.80
2023-02-19T07:59:06.525Z,1.90
2023-02-19T08:01:54.577Z,2.80
2023-02-19T08:04:22.823Z,1.40
2023-02-19T08:06:52.826Z,2.60
2023-02-19T08:09:22.758Z,1.00
2023-02-19T08:12:11.704Z,1.10
2023-02-19T08:14:39.480Z,2.50
2023-02-19T08:17:07.374Z,0.90
2023-02-19T08:19:35.144Z,4.00
2023-02-19T08:22:05.926Z,1.00
2023-02-19T08:24:35.254Z,1.50
2023-02-19T08:27:02.942Z,1.70
2023-02-19T08:29:31.728Z,0.80
2023-02-19T08:32:03.317Z,1.10
2023-02-19T08:34:31.906Z,1.40
2023-02-19T08:37:02.322Z,1.60
2023-02-19T08:39:30.010Z,4.30
2023-02-19T08:41:58.995Z,4.60
2023-02-19T08:44:27.914Z,3.10
2023-02-19T08:46:55.605Z,2.40
2023-02-19T08:49:27.650Z,3.50
2023-02-19T08:51:55.377Z,5.60
2023-02-19T08:54:23.054Z,4.20
2023-02-19T08:56:51.148Z,2.80
2023-02-19T08:59:22.040Z,2.10
2023-02-19T09:01:50.362Z,3.30
2023-02-19T09:04:18.769Z,1.60
2023-02-19T09:06:46.481Z,3.00
2023-02-19T09:09:16.865Z,4.80
2023-02-19T09:11:44.735Z,5.70
2023-02-19T09:14:12.487Z,5.60
2023-02-19T09:16:42.608Z,6.00
2023-02-19T09:19:10.614Z,3.10
2023-02-19T09:21:38.811Z,5.50
2023-02-19T09:24:09.848Z,10.70
2023-02-19T09:26:38.658Z,5.60
2023-02-19T09:29:06.694Z,1.50
2023-02-19T09:31:35.794Z,4.40
2023-02-19T09:34:06.229Z,6.70
2023-02-19T09:36:34.430Z,5.00
2023-02-19T09:39:02.435Z,3.40
2023-02-19T09:41:36.094Z,5.00
2023-02-19T09:44:09.840Z,4.90
2023-02-19T09:46:48.730Z,7.00
2023-02-19T09:49:41.525Z,12.80
2023-02-19T09:52:19.870Z,15.00
2023-02-19T09:54:48.182Z,7.60
2023-02-19T09:57:23.345Z,6.70
2023-02-19T10:00:11.241Z,5.30
2023-02-19T10:02:40.107Z,4.00
2023-02-19T10:05:14.647Z,8.90
2023-02-19T10:07:51.133Z,7.50
2023-02-19T10:10:33.473Z,6.20
2023-02-19T10:13:33.234Z,4.70
2023-02-19T10:16:10.057Z,3.90
2023-02-19T10:18:43.486Z,8.10
2023-02-19T10:21:31.929Z,7.40
2023-02-19T10:24:04.846Z,5.80
2023-02-19T10:26:38.038Z,5.20
2023-02-19T10:29:07.239Z,3.60
2023-02-19T10:31:35.211Z,13.90
2023-02-19T10:34:03.134Z,8.40
2023-02-19T10:36:43.550Z,5.20
2023-02-19T10:39:50.685Z,6.20
2023-02-19T10:42:23.397Z,5.10
2023-02-19T10:45:02.367Z,10.70
2023-02-19T10:47:33.520Z,3.20
2023-02-19T10:50:04.693Z,4.90
2023-02-19T10:52:36.923Z,3.20
2023-02-19T10:55:29.242Z,5.50
2023-02-19T10:57:58.377Z,4.60
2023-02-19T11:00:30.698Z,4.90
2023-02-19T11:03:23.911Z,3.00
2023-02-19T11:06:02.068Z,4.10
2023-02-19T11:08:53.834Z,4.80
2023-02-19T11:11:33.800Z,5.40
2023-02-19T11:14:34.940Z,2.60
2023-02-19T11:17:09.038Z,2.60
2023-02-19T11:19:44.804Z,8.70
2023-02-19T11:22:36.104Z,3.90
2023-02-19T11:25:22.590Z,4.50
2023-02-19T11:28:25.807Z,8.30
2023-02-19T11:30:54.101Z,4.90
2023-02-19T11:33:28.095Z,3.50
2023-02-19T11:37:07.137Z,4.30
2023-02-19T11:39:37.970Z,4.00
2023-02-19T11:42:39.366Z,5.30
2023-02-19T11:45:26.089Z,5.30
2023-02-19T11:48:35.412Z,2.80
2023-02-19T11:51:31.606Z,3.80
2023-02-19T11:54:32.170Z,3.50
2023-02-19T11:57:51.466Z,4.30
2023-02-19T12:00:41.283Z,1.30
2023-02-19T12:03:34.737Z,1.40
2023-02-19T12:06:27.583Z,2.20
2023-02-19T12:09:10.606Z,3.10
2023-02-19T12:11:59.805Z,4.00
2023-02-19T12:15:00.770Z,1.10
2023-02-19T12:18:11.439Z,1.50
2023-02-19T12:21:16.028Z,7.50
2023-02-19T12:23:58.215Z,7.10
2023-02-19T12:26:35.704Z,3.80
2023-02-19T12:29:34.550Z,2.70
2023-02-19T12:32:50.137Z,15.20
2023-02-19T12:36:05.793Z,4.30
2023-02-19T12:39:05.526Z,4.10
2023-02-19T12:42:16.423Z,3.90
2023-02-19T12:44:52.257Z,6.10
2023-02-19T12:47:28.851Z,4.20
2023-02-19T12:50:13.774Z,2.10
2023-02-19T12:52:55.284Z,4.10
2023-02-19T12:55:36.576Z,1.80
2023-02-19T12:58:12.754Z,4.80
2023-02-19T13:00:56.806Z,1.10
2023-02-19T13:06:50.234Z,5.80
2023-02-19T13:09:37.727Z,8.60
2023-02-19T13:12:32.071Z,5.70
2023-02-19T13:15:04.016Z,8.80
2023-02-19T13:17:45.392Z,2.60
2023-02-19T13:20:27.693Z,1.80
2023-02-19T13:23:38.334Z,4.80
2023-02-19T13:27:00.518Z,6.60
2023-02-19T13:29:48.963Z,2.10
2023-02-19T13:32:56.588Z,2.40
2023-02-19T13:36:10.571Z,1.20
2023-02-19T13:38:46.147Z,1.80
2023-02-19T13:41:40.486Z,5.70
2023-02-19T13:44:20.458Z,2.60
2023-02-19T13:46:53.335Z,3.80
2023-02-19T13:49:33.028Z,2.00
2023-02-19T13:52:29.728Z,7.40
2023-02-19T13:55:42.526Z,1.80
2023-02-19T13:58:33.568Z,1.90
2023-02-19T14:01:12.294Z,1.70
2023-02-19T14:04:06.813Z,2.00
2023-02-19T14:07:02.786Z,3.90
2023-02-19T14:09:45.897Z,5.40
2023-02-19T14:12:15.609Z,2.50
2023-02-19T14:14:53.141Z,4.10
2023-02-19T14:17:34.978Z,2.70
2023-02-19T14:20:08.815Z,7.50
2023-02-19T14:22:47.673Z,1.80
2023-02-19T14:25:29.613Z,9.30
2023-02-19T14:28:12.705Z,3.40
2023-02-19T14:30:57.670Z,8.30
2023-02-19T14:33:34.310Z,5.60
2023-02-19T14:36:17.307Z,3.40
2023-02-19T14:39:00.255Z,6.50
2023-02-19T14:41:32.624Z,2.10
2023-02-19T14:44:03.513Z,2.50
2023-02-19T14:46:41.586Z,2.10
2023-02-19T14:49:27.684Z,1.80
2023-02-19T14:52:08.925Z,3.80
2023-02-19T14:54:54.036Z,3.00
2023-02-19T14:57:39.095Z,3.70
2023-02-19T15:00:24.093Z,6.80
2023-02-19T15:02:59.080Z,2.30
2023-02-19T15:05:37.083Z,1.60
2023-02-19T15:08:14.440Z,3.00
2023-02-19T15:10:46.817Z,4.30
2023-02-19T15:13:28.009Z,4.70
2023-02-19T15:15:58.465Z,8.60
2023-02-19T15:18:30.464Z,6.70
2023-02-19T15:21:05.840Z,5.50
2023-02-19T15:23:36.281Z,4.60
2023-02-19T15:26:05.085Z,3.80
2023-02-19T15:28:34.572Z,4.30
2023-02-19T15:31:03.380Z,5.20
2023-02-19T15:33:32.542Z,7.10
2023-02-19T15:36:08.783Z,5.60
2023-02-19T15:38:38.218Z,5.10
2023-02-19T15:41:07.321Z,8.60
2023-02-19T15:44:25.014Z,9.00
2023-02-19T15:46:57.021Z,4.60
2023-02-19T15:49:43.184Z,1.60
2023-02-19T15:52:43.889Z,8.50
2023-02-19T15:55:38.643Z,4.60
2023-02-19T15:58:38.243Z,9.90
2023-02-19T16:01:31.151Z,4.80
2023-02-19T16:04:01.597Z,3.80
2023-02-19T16:06:31.357Z,4.80
2023-02-19T16:09:21.796Z,6.30
2023-02-19T16:11:56.834Z,4.90
2023-02-19T16:14:37.720Z,8.70
2023-02-19T16:17:07.736Z,6.40
2023-02-19T16:20:03.377Z,8.40
2023-02-19T16:22:42.766Z,5.50
2023-02-19T16:25:28.410Z,10.30
2023-02-19T16:28:00.355Z,6.80
2023-02-19T16:30:34.163Z,10.30
2023-02-19T16:33:21.723Z,11.40
2023-02-19T16:35:53.726Z,7.00
2023-02-19T16:38:22.936Z,9.50
2023-02-19T16:40:54.713Z,6.50
2023-02-19T16:43:42.363Z,6.80
2023-02-19T16:46:13.001Z,12.70
2023-02-19T16:48:41.845Z,8.70
2023-02-19T16:51:26.640Z,23.10
2023-02-19T16:53:54.407Z,26.30
2023-02-19T16:56:23.736Z,21.00
2023-02-19T16:58:54.586Z,20.00
2023-02-19T17:01:24.413Z,13.60
2023-02-19T17:04:02.772Z,12.60
2023-02-19T17:06:34.715Z,11.00
2023-02-19T17:09:02.680Z,15.10
2023-02-19T17:11:31.641Z,9.80
2023-02-19T17:13:59.424Z,13.20
2023-02-19T17:16:34.481Z,10.90
2023-02-19T17:19:05.829Z,9.60
2023-02-19T17:21:34.714Z,9.90
2023-02-19T17:24:03.641Z,14.30
2023-02-19T17:26:34.547Z,17.00
2023-02-19T17:29:07.059Z,15.00
2023-02-19T17:31:35.032Z,12.40
2023-02-19T17:34:02.793Z,41.20
2023-02-19T17:36:32.589Z,18.60
2023-02-19T17:39:04.733Z,12.90
2023-02-19T17:41:34.954Z,17.00
2023-02-19T17:44:08.801Z,21.20
2023-02-19T17:46:38.697Z,16.50
2023-02-19T17:49:12.427Z,32.00
2023-02-19T17:51:41.000Z,32.20
2023-02-19T17:54:09.415Z,30.10
2023-02-19T17:56:37.400Z,27.30
2023-02-19T17:59:05.547Z,33.30
2023-02-19T18:01:33.413Z,27.00
2023-02-19T18:04:06.689Z,28.30
2023-02-19T18:06:36.157Z,32.70
2023-02-19T18:09:04.041Z,27.10
2023-02-19T18:11:32.118Z,38.90
2023-02-19T18:14:00.548Z,26.40
2023-02-19T18:16:28.814Z,49.80
2023-02-19T18:19:01.803Z,40.80
2023-02-19T18:21:29.521Z,14.70
2023-02-19T18:23:57.428Z,11.90
2023-02-19T18:26:25.866Z,9.60
2023-02-19T18:28:56.083Z,11.40
2023-02-19T18:31:24.333Z,9.90
2023-02-19T18:33:52.830Z,9.60
2023-02-19T18:36:31.017Z,10.60
2023-02-19T18:38:59.192Z,11.90
2023-02-19T18:41:28.577Z,11.70
2023-02-19T18:43:56.281Z,13.20
2023-02-19T18:46:26.912Z,10.40
2023-02-19T18:48:56.449Z,13.00
2023-02-19T18:51:28.668Z,15.70
2023-02-19T18:53:58.793Z,21.20
2023-02-19T18:56:29.612Z,24.80
2023-02-19T18:59:04.414Z,23.80
2023-02-19T19:01:33.032Z,16.40
2023-02-19T19:04:03.099Z,13.80
2023-02-19T19:06:31.642Z,15.40
2023-02-19T19:08:59.547Z,13.40
2023-02-19T19:11:35.571Z,11.10
2023-02-19T19:14:04.150Z,12.50
2023-02-19T19:16:31.872Z,13.30
2023-02-19T19:19:00.649Z,11.10
2023-02-19T19:21:29.002Z,10.20
2023-02-19T19:23:57.230Z,13.90
2023-02-19T19:26:26.813Z,8.20
2023-02-19T19:28:55.124Z,13.00
2023-02-19T19:31:24.872Z,20.90
2023-02-19T19:33:53.261Z,14.10
2023-02-19T19:36:25.877Z,26.90
2023-02-19T19:38:54.751Z,24.00
2023-02-19T19:41:22.642Z,22.30
2023-02-19T19:43:51.202Z,19.40
2023-02-19T19:46:23.377Z,17.50
2023-02-19T19:48:53.089Z,20.80
2023-02-19T19:51:21.328Z,18.80
2023-02-19T19:53:55.459Z,15.80
2023-02-19T19:56:24.270Z,28.80
2023-02-19T19:58:56.821Z,37.00
2023-02-19T20:01:26.093Z,44.30
2023-02-19T20:03:54.101Z,35.90
2023-02-19T20:06:31.210Z,26.00
2023-02-19T20:09:00.163Z,26.00
2023-02-19T20:11:28.621Z,24.20
2023-02-19T20:13:59.469Z,20.20
2023-02-19T20:16:29.265Z,19.30
2023-02-19T20:19:01.862Z,22.60
2023-02-19T20:21:33.073Z,19.70
2023-02-19T20:24:02.137Z,19.60
2023-02-19T20:26:31.938Z,18.00
2023-02-19T20:29:00.884Z,14.90
2023-02-19T20:31:31.887Z,20.80
2023-02-19T20:34:02.135Z,22.30
2023-02-19T20:36:32.120Z,18.40
2023-02-19T20:39:04.238Z,21.40
2023-02-19T20:41:33.994Z,20.70
2023-02-19T20:44:06.792Z,18.40
2023-02-19T20:46:47.250Z,19.10
2023-02-19T20:49:23.808Z,23.50
2023-02-19T20:51:59.037Z,20.30
2023-02-19T20:54:34.073Z,21.70
2023-02-19T20:57:06.728Z,20.00
2023-02-19T20:59:35.612Z,19.10
2023-02-19T21:02:29.473Z,18.70
2023-02-19T21:05:02.119Z,19.50
2023-02-19T21:07:31.027Z,12.50
2023-02-19T21:10:00.739Z,17.40
2023-02-19T21:12:33.740Z,13.70
2023-02-19T21:15:02.471Z,15.70
2023-02-19T21:17:33.753Z,13.80
2023-02-19T21:20:04.988Z,12.20
2023-02-19T21:22:33.453Z,28.20
2023-02-19T21:25:02.886Z,79.20
2023-02-19T21:27:30.652Z,53.20
2023-02-19T21:29:58.808Z,35.80
2023-02-19T21:32:26.926Z,23.70
2023-02-19T21:34:55.813Z,20.00
2023-02-19T21:37:27.478Z,14.60
2023-02-19T21:39:58.704Z,14.20
2023-02-19T21:42:28.911Z,14.60
2023-02-19T21:44:58.028Z,16.00
2023-02-19T21:47:27.805Z,18.80
2023-02-19T21:49:58.266Z,16.60
2023-02-19T21:52:27.016Z,11.40
2023-02-19T21:54:56.281Z,12.00
2023-02-19T21:57:24.644Z,14.50
2023-02-19T21:59:56.005Z,10.10
2023-02-19T22:02:26.204Z,13.70
2023-02-19T22:04:55.421Z,14.20
2023-02-19T22:07:24.825Z,12.60
2023-02-19T22:10:02.906Z,17.30
2023-02-19T22:12:34.421Z,16.30
2023-02-19T22:15:05.344Z,12.20
2023-02-19T22:17:33.743Z,14.00
2023-02-19T22:20:06.012Z,13.40
2023-02-19T22:22:41.984Z,14.70
2023-02-19T22:25:11.023Z,9.50
2023-02-19T22:27:38.930Z,11.00
2023-02-19T22:30:07.858Z,10.20
2023-02-19T22:32:35.730Z,9.40
2023-02-19T22:35:04.359Z,6.50
2023-02-19T22:37:36.171Z,4.70
2023-02-19T22:40:06.078Z,8.60
2023-02-19T22:42:35.958Z,9.70
2023-02-19T22:45:06.637Z,5.00
2023-02-19T22:47:43.805Z,5.10
2023-02-19T22:50:23.029Z,8.40
2023-02-19T22:52:54.742Z,6.80
2023-02-19T22:55:24.727Z,6.20
2023-02-19T22:57:52.783Z,6.10
2023-02-19T23:00:21.867Z,5.80
2023-02-19T23:02:51.775Z,5.00
2023-02-19T23:05:20.502Z,5.50
2023-02-19T23:07:48.588Z,8.50
2023-02-19T23:10:17.028Z,6.10
2023-02-19T23:12:46.241Z,4.80
2023-02-19T23:15:16.428Z,8.10
2023-02-19T23:17:46.643Z,9.40
2023-02-19T23:20:14.860Z,7.40
2023-02-19T23:22:46.100Z,6.40
2023-02-19T23:25:15.592Z,6.80
2023-02-19T23:27:43.582Z,4.90
2023-02-19T23:30:13.953Z,6.20
2023-02-19T23:32:42.326Z,5.30
2023-02-19T23:35:11.706Z,7.60
2023-02-19T23:37:40.041Z,6.50
2023-02-19T23:40:10.646Z,6.30
2023-02-19T23:42:47.841Z,7.20
2023-02-19T23:45:17.460Z,7.70
2023-02-19T23:47:46.629Z,5.70
2023-02-19T23:50:17.056Z,4.50
2023-02-19T23:52:44.766Z,4.40
2023-02-19T23:55:13.969Z,4.80
2023-02-19T23:57:43.257Z,5.20
